AirNav   Phillips 66 Aviation Fuel
 
 717 users online  

KPCW Erie-Ottawa International Airport
Port Clinton, Ohio, USA

GOING TO PORT CLINTON?


FAA INFORMATION EFFECTIVE 01 FEBRUARY 2018

Location

FAA Identifier: PCW
Lat/Long: 41-30-58.5732N / 082-52-10.1524W
41-30.976220N / 082-52.169207W
41.5162703 / -82.8694868
(estimated)
Elevation: 589.9 ft. / 179.8 m (surveyed)
Variation: 07W (2010)
From city: 3 miles E of PORT CLINTON, OH
Time zone: UTC -5 (UTC -4 during Daylight Saving Time)
Zip code: 43452

Airport Operations

Airport use: Open to the public
Activation date: 07/1971
Control tower: no
ARTCC: CLEVELAND CENTER
FSS: CLEVELAND FLIGHT SERVICE STATION
NOTAMs facility: CLE (NOTAM-D service available)
Attendance: 0700-1800
Wind indicator: lighted
Segmented circle: no
Lights: ACTVT MIRL RYS 09/27 & 18/36; REILS RYS 09 & 27;PAPIS RYS 09 & 27 - CTAF.
Beacon: white-green (lighted land airport)
Operates sunset to sunrise.

Airport Communications

CTAF/UNICOM: 122.8
WX AWOS-3: 118.775 (419-734-9955)
CLEVELAND APPROACH: 126.35 [0600-2300]
CLEVELAND DEPARTURE: 126.35 [0600-2300]
WX AWOS-3 at S24 (15 nm SW): 119.575 (419-547-6932)

Nearby radio navigation aids

VOR radial/distance  VOR name  Freq  Var
DJBr292/33.2DRYER VOR/DME113.6005W
VWVr086/34.8WATERVILLE VOR/DME113.1002W

 
NDB name  Hdg/Dist  Freq  Var  ID
PORT CLINTONat field42307WPCW .--. -.-. .--
TIFFIN037/29.726905WTII - .. ..
GROSSE ILE167/37.341907WRYS .-. -.-- ...

Airport Services

Fuel available: 100LL JET-A JET-A+
Parking: hangars and tiedowns
Airframe service: MINOR
Powerplant service: MINOR
Bottled oxygen: NONE
Bulk oxygen: NONE

Runway Information

Runway 9/27

Dimensions: 5646 x 100 ft. / 1721 x 30 m
Surface: asphalt/grooved, in good condition
Weight bearing capacity: 
Single wheel: 16.0
Runway edge lights: medium intensity
Runway edge markings: RWY 09/27: MARKINGS FADED
RUNWAY 9  RUNWAY 27
Latitude: 41-30.961672N41-31.081403N
Longitude: 082-52.899998W082-51.673460W
Elevation: 588.8 ft.587.8 ft.
Gradient: 0.1%0.1%
Traffic pattern: leftleft
Runway heading: 090 magnetic, 083 true270 magnetic, 263 true
Displaced threshold: no201 ft.
Markings: nonprecision, in poor conditionnonprecision, in poor condition
Visual slope indicator: 4-light PAPI on left (3.00 degrees glide path)4-light PAPI on left (3.00 degrees glide path)
Runway end identifier lights: yesyes
Touchdown point: yes, no lightsyes, no lights
Obstructions: 70 ft. tree, 1800 ft. from runway, 230 ft. right of centerline, 22:1 slope to clear50 ft. tree, 1350 ft. from runway, 23:1 slope to clear

Runway 18/36

Dimensions: 4001 x 75 ft. / 1220 x 23 m
Surface: asphalt, in excellent condition
Runway edge lights: medium intensity
RUNWAY 18  RUNWAY 36
Latitude: 41-31.241435N41-30.583108N
Longitude: 082-52.019735W082-51.986995W
Elevation: 586.0 ft.588.9 ft.
Traffic pattern: leftleft
Runway heading: 185 magnetic, 178 true005 magnetic, 358 true
Markings: basic, in good conditionbasic, in good condition
Runway end identifier lights: nono
Touchdown point: yes, no lightsyes, no lights
Obstructions: 45 ft. trees, 1075 ft. from runway, 19:1 slope to clear70 ft. trees, 1450 ft. from runway, 250 ft. both sides of centerline, 17:1 slope to clear

Airport Ownership and Management from official FAA records

Ownership: Publicly-owned
Owner: ERIE OTTAWA ARPT AUTH
3255 E. STATE ROAD
PORT CLINTON, OH 43452
Phone 419-734-6297
Manager: STAN GEBHARDT
3255 EAST STATE RD
PORT CLINTON, OH 43452
Phone 419-734-6297

Airport Operational Statistics

Aircraft based on the field: 61
Single engine airplanes: 48
Multi engine airplanes: 9
Jet airplanes: 3
Helicopters: 1
    
Aircraft operations: avg 148/day *
46% local general aviation
28% transient general aviation
26% air taxi
<1% military
* for 12-month period ending 15 September 2017

Additional Remarks

RWY 09/27 IS PREFERRED WHEN WINDS ARE LIGHT AND VRBL.
TAXILANE A CLSD TO ACFT WITH WINGSPAN MORE THAN 49 FT.
BIRDS & OTHER WILDLIFE ON & INVOF APRT

Instrument Procedures

NOTE: All procedures below are presented as PDF files. If you need a reader for these files, you should download the free Adobe Reader.

NOT FOR NAVIGATION. Please procure official charts for flight.
FAA instrument procedures published for use between 1 February 2018 at 0901Z and 1 March 2018 at 0900Z.

 
IAPs - Instrument Approach Procedures
RNAV (GPS) RWY 09   download (187KB)
RNAV (GPS) RWY 27   download (210KB)
NDB RWY 27   download (225KB)
NOTE: Special Alternate Minimums apply   download (37KB)
NOTE: Special Take-Off Minimums/Departure Procedures apply   download (237KB)

Other nearby airports with instrument procedures:

S24 - Sandusky County Regional Airport (15 nm SW)
14G - Fremont Airport (17 nm SW)
5A1 - Norwalk-Huron County Airport (22 nm SE)
KTDZ - Toledo Executive Airport (28 nm W)
8G1 - Willard Airport (29 nm S)
 
Loc | Ops | Rwys | IFR | FBO | Links
Com | Nav | Svcs | Stats | Notes

AirNav Hotels Sweepstakes
 
Area around KPCW (Erie-Ottawa International Airport)
 
Road maps at: MapQuest Bing Google
 
Aerial photo
WARNING: Photo may not be current or correct
Aerial photo of KPCW (Erie-Ottawa International Airport)
Photo by Tal Reichert
Photo taken 29-Jul-2012
looking northeast.

Do you have a better or more recent aerial photo of Erie-Ottawa International Airport that you would like to share? If so, please send us your photo.

 
Sectional chart

 
Airport distance calculator
Flying to Erie-Ottawa International Airport? Find the distance to fly.

From to KPCW

Sunrise and sunset
Times for 17-Feb-2018
 Local
(UTC-5)
 Zulu
(UTC)
Morning civil twilight06:5711:57
Sunrise07:2512:25
Sunset18:0623:06
Evening civil twilight18:3423:34

Current date and time
Zulu (UTC)  18-Feb-2018 04:09:08
Local (UTC-5)  17-Feb-2018 23:09:08
 
METAR
KPCW 180355Z AUTO 27009KT 3/4SM -SN OVC003 M00/M00 A3001 RMK AO2
TAF
KTOL 
42nm W 
180142Z 1802/1824 VRB03KT 1SM -SN OVC025 FM180400 25005KT 4SM -SN OVC015 FM180600 27007KT P6SM OVC015 FM180800 27007KT P6SM OVC025 FM181300 19005KT P6SM SKC
KMFD 
45nm S 
180147Z 1802/1824 18005KT 4SM -SN OVC008 TEMPO 1803/1806 1SM -SN FM180600 26009KT P6SM OVC007 FM181500 17008KT P6SM SKC
CYQG 
46nm N 
180221Z 1802/1824 20007KT P6SM SCT030 OVC070 TEMPO 1802/1803 2SM -SN BKN015 OVC030 FM180300 24007KT P6SM OVC025 TEMPO 1803/1805 11/4SM -SHSN BR BKN007 FM180500 25010KT P6SM BKN007 OVC015 TEMPO 1805/1810 SCT007 FM181000 26010KT P6SM SKC BECMG 1816/1818 20010KT RMK NXT FCST BY 180600Z
KCLE 
46nm E 
172104Z 1721/1824 18008KT P6SM SCT035 OVC100 FM172200 19008KT P6SM VCSH BKN030 TEMPO 1802/1806 22008KT 4SM -SHSN OVC015 FM180600 25010KT P6SM OVC015 FM180900 27008KT P6SM OVC025 FM181300 24006KT P6SM BKN040
KFDY 
47nm SW 
180136Z 1802/1824 18004KT 1SM -SN BR OVC004 FM180400 22007KT 4SM BR OVC004 FM180600 26011KT 4SM BR OVC015 FM180900 27009KT P6SM OVC025 FM181200 27005KT P6SM SKC FM181800 17010KT P6SM SKC
KDTW 
48nm NW 
172057Z 1721/1824 20009KT P6SM SCT030 OVC100 FM180100 21010KT 5SM -SHSN BKN025 OVC035 FM180600 28010KT P6SM BKN030 FM181000 25005KT P6SM BKN150 FM181400 23008KT P6SM SCT250
NOTAMs
Click for the latest NOTAMs
NOTAMs are issued by the DoD/FAA and will open in a separate window not controlled by AirNav.

 

 
 

FBO, Fuel Providers, and Aircraft Ground Support

  
 Business Name 
 
 Contact 
 
 Services / Description 
 
Fuel Prices
 
Comments
  
 Erie Ottawa International Airport Authority
419-734-6297
[web site]
[email]
Aviation fuel, Aircraft parking (ramp or tiedown), Hangars, GPU / Power cart, Passenger terminal and lounge, Aviation museum, Rental cars, ...
 
U.S. Government AIR Card   U.S. Customs Service   WingPoints™ Rewards   Crew cars  
 
More info about Erie Ottawa International Airport Authority
Phillips 66
100LL Jet A
FS $5.08 $4.25 
SS $4.83 --- 
 Updated 12-Feb-2018
 
   8 read write
FS=Full service
SS=Self service
Update Fuel Prices
 

Would you like to see your business listed on this page?

 If your business provides an interesting product or service to pilots, flight crews, aircraft, or users of the Erie-Ottawa International Airport, you should consider listing it here.  To start the listing process, click on the button below
 
Add a business
 

Other Pages about Erie-Ottawa International Airport

www.portclintonairport.com
 
Update a link
 
Copyright © AirNav, LLC. All rights reserved. Privacy Policy  Contact